createdAt,value
2018-06-11T07:05:58.193Z,978.10
2018-06-11T07:06:58.176Z,978.05
2018-06-11T07:07:58.178Z,978.15
2018-06-11T07:08:58.174Z,978.09
2018-06-11T07:09:58.183Z,978.10
2018-06-11T07:10:58.229Z,978.13
2018-06-11T07:11:58.188Z,978.09
2018-06-11T07:12:58.191Z,978.03
2018-06-11T07:13:58.197Z,978.09
2018-06-11T07:14:58.199Z,978.07
2018-06-11T07:15:58.205Z,978.08
2018-06-11T07:16:58.211Z,978.08
2018-06-11T07:17:58.212Z,978.11
2018-06-11T07:18:58.221Z,978.05
2018-06-11T07:19:58.226Z,978.13
2018-06-11T07:20:58.230Z,978.07
2018-06-11T07:21:58.238Z,978.06
2018-06-11T07:22:58.245Z,978.10
2018-06-11T07:23:58.248Z,978.12
2018-06-11T07:24:58.255Z,978.12
2018-06-11T07:25:58.261Z,978.13
2018-06-11T07:26:58.264Z,978.12
2018-06-11T07:27:58.271Z,978.11
2018-06-11T07:28:58.277Z,978.13
2018-06-11T07:29:58.286Z,978.10
2018-06-11T07:30:58.293Z,978.09
2018-06-11T07:31:58.297Z,978.09
2018-06-11T07:32:58.304Z,978.09
2018-06-11T07:33:58.311Z,978.09
2018-06-11T07:34:58.367Z,978.08
2018-06-11T07:35:58.322Z,978.13
2018-06-11T07:36:58.336Z,978.11
2018-06-11T07:37:58.337Z,978.11
2018-06-11T07:38:58.343Z,978.10
2018-06-11T07:39:58.351Z,978.10
2018-06-11T07:40:58.393Z,978.07
2018-06-11T07:41:58.361Z,978.13
2018-06-11T07:42:58.368Z,978.12
2018-06-11T07:43:58.376Z,978.05
2018-06-11T07:44:58.381Z,978.06
2018-06-11T07:45:58.390Z,978.03
2018-06-11T07:46:58.390Z,978.06
2018-06-11T07:47:58.435Z,978.05
2018-06-11T07:48:58.411Z,978.05
2018-06-11T07:49:58.416Z,978.08
2018-06-11T07:50:58.425Z,978.05
2018-06-11T07:51:58.428Z,978.03
2018-06-11T07:52:58.436Z,978.10
2018-06-11T07:53:58.443Z,978.10
2018-06-11T07:54:58.448Z,978.11
2018-06-11T07:55:58.457Z,978.17
2018-06-11T07:56:58.462Z,978.21
2018-06-11T07:57:58.470Z,978.20
2018-06-11T07:58:58.476Z,978.21
2018-06-11T07:59:58.513Z,978.22
2018-06-11T08:00:58.490Z,978.24
2018-06-11T08:01:58.496Z,978.29
2018-06-11T08:02:58.502Z,978.35
2018-06-11T08:03:58.513Z,978.35
2018-06-11T08:04:58.518Z,978.30
2018-06-11T08:05:58.524Z,978.33
2018-06-11T08:06:58.530Z,978.33
2018-06-11T08:07:58.538Z,978.29
2018-06-11T08:08:58.549Z,978.32
2018-06-11T08:09:58.550Z,978.33
2018-06-11T08:10:58.556Z,978.37
2018-06-11T08:11:58.562Z,978.39
2018-06-11T08:12:58.563Z,978.39
2018-06-11T08:13:58.576Z,978.42
2018-06-11T08:14:58.581Z,978.41
2018-06-11T08:15:58.587Z,978.42
2018-06-11T08:16:58.594Z,978.45
2018-06-11T08:17:58.601Z,978.47
2018-06-11T08:18:58.604Z,978.47
2018-06-11T08:19:58.613Z,978.51
2018-06-11T08:20:58.618Z,978.52
2018-06-11T08:21:58.625Z,978.53
2018-06-11T08:22:58.628Z,978.54
2018-06-11T08:23:58.638Z,978.56
2018-06-11T08:24:58.642Z,978.53
2018-06-11T08:25:58.647Z,978.50
2018-06-11T08:26:58.656Z,978.53
2018-06-11T08:27:58.661Z,978.48
2018-06-11T08:28:58.670Z,978.48
2018-06-11T08:29:58.675Z,978.46
2018-06-11T08:30:58.684Z,978.46
2018-06-11T08:31:58.687Z,978.45
2018-06-11T08:32:58.694Z,978.48
2018-06-11T08:33:58.706Z,978.51
2018-06-11T08:34:58.705Z,978.52
2018-06-11T08:35:58.713Z,978.55
2018-06-11T08:36:58.713Z,978.56
2018-06-11T08:37:58.720Z,978.58
2018-06-11T08:38:58.731Z,978.60
2018-06-11T08:39:58.736Z,978.61
2018-06-11T08:40:58.748Z,978.60
2018-06-11T08:41:58.749Z,978.60
2018-06-11T08:42:58.757Z,978.59
2018-06-11T08:43:58.765Z,978.57
2018-06-11T08:44:58.769Z,978.52
2018-06-11T08:45:58.777Z,978.50
2018-06-11T08:46:58.778Z,978.51
2018-06-11T08:47:58.795Z,978.49
2018-06-11T08:48:58.795Z,978.50
2018-06-11T08:49:58.805Z,978.51
2018-06-11T08:50:58.802Z,978.52
2018-06-11T08:51:58.814Z,978.50
2018-06-11T08:52:58.823Z,978.45
2018-06-11T08:53:58.829Z,978.49
2018-06-11T08:54:58.835Z,978.53
2018-06-11T08:55:58.841Z,978.51
2018-06-11T08:56:58.850Z,978.55
2018-06-11T08:57:58.855Z,978.55
2018-06-11T08:58:58.859Z,978.58
2018-06-11T08:59:58.882Z,978.59
2018-06-11T09:00:58.895Z,978.56
2018-06-11T09:01:58.884Z,978.59
2018-06-11T09:02:58.890Z,978.60
2018-06-11T09:03:58.899Z,978.62
2018-06-11T09:04:58.904Z,978.63
2018-06-11T09:05:58.912Z,978.58
2018-06-11T09:06:58.969Z,978.59
2018-06-11T09:07:58.924Z,978.58
2018-06-11T09:08:58.932Z,978.58
2018-06-11T09:09:58.933Z,978.58
2018-06-11T09:10:58.946Z,978.53
2018-06-11T09:11:58.951Z,978.61
2018-06-11T09:12:58.959Z,978.58
2018-06-11T09:13:58.967Z,978.59
2018-06-11T09:14:59.016Z,978.59
2018-06-11T09:15:58.976Z,978.65
2018-06-11T09:16:58.991Z,978.63
2018-06-11T09:17:59.071Z,978.66
2018-06-11T09:18:59.001Z,978.65
2018-06-11T09:19:59.008Z,978.65
2018-06-11T09:20:59.016Z,978.64
2018-06-11T09:21:59.017Z,978.68
2018-06-11T09:22:59.032Z,978.66
2018-06-11T09:23:59.041Z,978.63
2018-06-11T09:24:59.067Z,978.58
2018-06-11T09:25:59.060Z,978.60
2018-06-11T09:26:59.061Z,978.63
2018-06-11T09:27:59.067Z,978.65
2018-06-11T09:28:59.075Z,978.68
2018-06-11T09:29:59.083Z,978.68
2018-06-11T09:30:59.107Z,978.67
2018-06-11T09:31:59.099Z,978.68
2018-06-11T09:32:59.107Z,978.70
2018-06-11T09:33:59.114Z,978.64
2018-06-11T09:34:59.123Z,978.64
2018-06-11T09:35:59.133Z,978.70
2018-06-11T09:36:59.140Z,978.66
2018-06-11T09:37:59.146Z,978.63
2018-06-11T09:38:59.153Z,978.61
2018-06-11T09:39:59.161Z,978.62
2018-06-11T09:40:59.166Z,978.59
2018-06-11T09:41:59.183Z,978.60
2018-06-11T09:42:59.182Z,978.63
2018-06-11T09:43:59.249Z,978.66
2018-06-11T09:44:59.206Z,978.63
2018-06-11T09:45:59.216Z,978.72
2018-06-11T09:46:59.226Z,978.70
2018-06-11T09:47:59.235Z,978.67
2018-06-11T09:48:59.253Z,978.73
2018-06-11T09:49:59.252Z,978.76
2018-06-11T09:50:59.260Z,978.73
2018-06-11T09:51:59.268Z,978.73
2018-06-11T09:52:59.274Z,978.74
2018-06-11T09:53:59.280Z,978.69
2018-06-11T09:54:59.296Z,978.68
2018-06-11T09:55:59.309Z,978.68
2018-06-11T09:56:59.314Z,978.66
2018-06-11T09:57:59.326Z,978.64
2018-06-11T09:58:59.333Z,978.71
2018-06-11T09:59:59.342Z,978.66
2018-06-11T10:00:59.354Z,978.66
2018-06-11T10:01:59.362Z,978.65
2018-06-11T10:02:59.364Z,978.68
2018-06-11T10:03:59.374Z,978.64
2018-06-11T10:04:59.390Z,978.65
2018-06-11T10:05:59.393Z,978.61
2018-06-11T10:06:59.408Z,978.61
2018-06-11T10:07:59.419Z,978.61
2018-06-11T10:08:59.429Z,978.61
2018-06-11T10:09:59.437Z,978.61
2018-06-11T10:10:59.444Z,978.58
2018-06-11T10:11:59.454Z,978.62
2018-06-11T10:12:59.460Z,978.55
2018-06-11T10:13:59.473Z,978.60
2018-06-11T10:14:59.479Z,978.58
2018-06-11T10:15:59.488Z,978.55
2018-06-11T10:16:59.497Z,978.59
2018-06-11T10:17:59.509Z,978.59
2018-06-11T10:18:59.523Z,978.66
2018-06-11T10:19:59.530Z,978.67
2018-06-11T10:20:59.538Z,978.61
2018-06-11T10:21:59.546Z,978.64
2018-06-11T10:22:59.549Z,978.61
2018-06-11T10:23:59.562Z,978.57
2018-06-11T10:24:59.574Z,978.60
2018-06-11T10:25:59.585Z,978.56
2018-06-11T10:26:59.591Z,978.59
2018-06-11T10:27:59.601Z,978.59
2018-06-11T10:28:59.605Z,978.54
2018-06-11T10:29:59.618Z,978.62
2018-06-11T10:30:59.628Z,978.62
2018-06-11T10:31:59.638Z,978.59
2018-06-11T10:32:59.644Z,978.57
2018-06-11T10:33:59.656Z,978.60
2018-06-11T10:34:59.670Z,978.59
2018-06-11T10:35:59.675Z,978.52
2018-06-11T10:36:59.759Z,978.57
2018-06-11T10:37:59.693Z,978.56
2018-06-11T10:38:59.702Z,978.56
2018-06-11T10:39:59.716Z,978.61
2018-06-11T10:40:59.720Z,978.60
2018-06-11T10:41:59.730Z,978.61
2018-06-11T10:42:59.736Z,978.59
2018-06-11T10:43:59.746Z,978.58
2018-06-11T10:44:59.756Z,978.59
2018-06-11T10:45:59.761Z,978.56
2018-06-11T10:46:59.775Z,978.55
2018-06-11T10:47:59.786Z,978.59
2018-06-11T10:48:59.793Z,978.52
2018-06-11T10:49:59.807Z,978.53
2018-06-11T10:50:59.812Z,978.52
2018-06-11T10:51:59.824Z,978.53
2018-06-11T10:52:59.844Z,978.54
2018-06-11T10:53:59.842Z,978.50
2018-06-11T10:54:59.850Z,978.52
2018-06-11T10:55:59.861Z,978.51
2018-06-11T10:56:59.873Z,978.54
2018-06-11T10:57:59.918Z,978.53
2018-06-11T10:58:59.890Z,978.54
2018-06-11T10:59:59.902Z,978.47
2018-06-11T11:00:59.916Z,978.44
2018-06-11T11:01:59.915Z,978.46
2018-06-11T11:02:59.929Z,978.44
2018-06-11T11:03:59.943Z,978.42
2018-06-11T11:04:59.941Z,978.41
2018-06-11T11:05:59.959Z,978.44
2018-06-11T11:06:59.968Z,978.45
2018-06-11T11:07:59.978Z,978.41
2018-06-11T11:08:59.989Z,978.41
2018-06-11T11:10:00.000Z,978.45
2018-06-11T11:11:00.027Z,978.44
2018-06-11T11:12:00.018Z,978.45
2018-06-11T11:13:00.027Z,978.44
2018-06-11T11:14:00.037Z,978.43
2018-06-11T11:15:00.052Z,978.39
2018-06-11T11:16:00.051Z,978.34
2018-06-11T11:17:00.069Z,978.38
2018-06-11T11:18:00.077Z,978.35
2018-06-11T11:19:00.088Z,978.38
2018-06-11T11:20:00.097Z,978.37
2018-06-11T11:21:00.109Z,978.40
2018-06-11T11:22:00.118Z,978.44
2018-06-11T11:23:00.142Z,978.41
2018-06-11T11:24:00.182Z,978.39
2018-06-11T11:25:00.146Z,978.37
2018-06-11T11:26:00.158Z,978.33
2018-06-11T11:27:00.167Z,978.29
2018-06-11T11:28:00.172Z,978.27
2018-06-11T11:29:00.181Z,978.18
2018-06-11T11:30:00.208Z,978.13
2018-06-11T11:31:00.203Z,978.13
2018-06-11T11:32:00.213Z,978.13
2018-06-11T11:33:00.226Z,978.09
2018-06-11T11:34:00.233Z,978.09
2018-06-11T11:35:00.243Z,978.08
2018-06-11T11:36:00.253Z,978.11
2018-06-11T11:37:00.262Z,978.07
2018-06-11T11:38:00.274Z,978.10
2018-06-11T11:39:00.278Z,978.10
2018-06-11T11:40:00.289Z,978.06
2018-06-11T11:41:00.305Z,978.10
2018-06-11T11:42:00.315Z,978.04
2018-06-11T11:43:00.318Z,978.10
2018-06-11T11:44:00.333Z,978.07
2018-06-11T11:45:00.336Z,978.06
2018-06-11T11:46:00.347Z,978.09
2018-06-11T11:47:00.356Z,978.04
2018-06-11T11:48:00.367Z,978.00
2018-06-11T11:49:00.376Z,978.00
2018-06-11T11:50:00.387Z,978.03
2018-06-11T11:51:00.397Z,977.98
2018-06-11T11:52:00.400Z,977.98
2018-06-11T11:53:00.414Z,977.98
2018-06-11T11:54:00.420Z,977.96
2018-06-11T11:55:00.434Z,977.97
2018-06-11T11:56:00.443Z,977.95
2018-06-11T11:57:00.453Z,977.93
2018-06-11T11:58:00.465Z,977.90
2018-06-11T11:59:00.464Z,977.93
2018-06-11T12:00:00.483Z,977.89
2018-06-11T12:01:00.496Z,977.88
2018-06-11T12:02:00.503Z,977.90
2018-06-11T12:03:00.511Z,977.88
2018-06-11T12:04:00.541Z,977.83
2018-06-11T12:05:00.533Z,977.85
2018-06-11T12:06:00.541Z,977.81
2018-06-11T12:07:00.553Z,977.83
2018-06-11T12:08:00.564Z,977.76
2018-06-11T12:09:00.572Z,977.80
2018-06-11T12:10:00.580Z,977.76
2018-06-11T12:11:00.594Z,977.76
2018-06-11T12:12:00.604Z,977.75
2018-06-11T12:13:00.613Z,977.73
2018-06-11T12:14:00.626Z,977.72
2018-06-11T12:15:00.632Z,977.72
2018-06-11T12:16:00.644Z,977.67
2018-06-11T12:17:00.653Z,977.65
2018-06-11T12:18:00.665Z,977.65
2018-06-11T12:19:00.715Z,977.63
2018-06-11T12:20:00.681Z,977.58
2018-06-11T12:21:00.694Z,977.64
2018-06-11T12:22:00.710Z,977.66
2018-06-11T12:23:00.716Z,977.67
2018-06-11T12:24:00.726Z,977.61
2018-06-11T12:25:00.734Z,977.61
2018-06-11T12:26:00.744Z,977.53
2018-06-11T12:27:00.754Z,977.54
2018-06-11T12:28:00.761Z,977.55
2018-06-11T12:29:00.777Z,977.56
2018-06-11T12:30:00.786Z,977.57
2018-06-11T12:31:00.794Z,977.57
2018-06-11T12:32:00.805Z,977.59
2018-06-11T12:33:00.821Z,977.56
2018-06-11T12:34:00.824Z,977.57
2018-06-11T12:35:00.835Z,977.57
2018-06-11T12:36:00.842Z,977.57
2018-06-11T12:37:00.856Z,977.61
2018-06-11T12:38:00.868Z,977.53
2018-06-11T12:39:00.874Z,977.57
2018-06-11T12:40:00.885Z,977.51
2018-06-11T12:41:00.895Z,977.56
2018-06-11T12:42:00.904Z,977.56
2018-06-11T12:43:00.910Z,977.54
2018-06-11T12:44:00.929Z,977.57
2018-06-11T12:45:00.938Z,977.54
2018-06-11T12:46:00.946Z,977.50
2018-06-11T12:47:00.954Z,977.46
2018-06-11T12:48:00.968Z,977.40
2018-06-11T12:49:00.975Z,977.35
2018-06-11T12:50:00.988Z,977.34
2018-06-11T12:51:00.999Z,977.34
2018-06-11T12:52:01.010Z,977.30
2018-06-11T12:53:01.021Z,977.30
2018-06-11T12:54:01.030Z,977.28
2018-06-11T12:55:01.044Z,977.31
2018-06-11T12:56:01.049Z,977.28
2018-06-11T12:57:01.065Z,977.29
2018-06-11T12:58:01.073Z,977.30
2018-06-11T12:59:01.081Z,977.32
2018-06-11T13:00:01.093Z,977.32
2018-06-11T13:01:01.101Z,977.29
2018-06-11T13:02:01.112Z,977.29
2018-06-11T13:03:01.124Z,977.27
2018-06-11T13:04:01.142Z,977.23
2018-06-11T13:05:01.146Z,977.21
2018-06-11T13:06:01.157Z,977.23
2018-06-11T13:07:01.168Z,977.15
2018-06-11T13:08:01.180Z,977.15
2018-06-11T13:09:01.191Z,977.13
2018-06-11T13:10:01.202Z,977.02
2018-06-11T13:11:01.209Z,977.09
2018-06-11T13:12:01.218Z,977.04
2018-06-11T13:13:01.227Z,977.07
2018-06-11T13:14:01.305Z,977.04
2018-06-11T13:15:01.255Z,977.04
2018-06-11T13:16:01.266Z,977.06
2018-06-11T13:17:01.275Z,977.10
2018-06-11T13:18:01.286Z,977.13
2018-06-11T13:19:01.295Z,977.15
2018-06-11T13:20:01.302Z,977.15
2018-06-11T13:21:01.322Z,977.10
2018-06-11T13:22:01.353Z,977.03
2018-06-11T13:23:01.336Z,977.05
2018-06-11T13:24:01.349Z,977.01
2018-06-11T13:25:01.360Z,977.08
2018-06-11T13:26:01.367Z,977.09
2018-06-11T13:27:01.380Z,977.06
2018-06-11T13:28:01.396Z,977.07
2018-06-11T13:29:01.408Z,977.04
2018-06-11T13:30:01.415Z,977.07
2018-06-11T13:31:01.427Z,977.00
2018-06-11T13:32:01.436Z,976.99
2018-06-11T13:33:01.448Z,976.98
2018-06-11T13:34:01.458Z,976.90
2018-06-11T13:35:01.471Z,976.91
2018-06-11T13:36:01.482Z,976.86
2018-06-11T13:37:01.534Z,976.85
2018-06-11T13:38:01.504Z,976.86
2018-06-11T13:39:01.512Z,976.87
2018-06-11T13:40:01.525Z,976.82
2018-06-11T13:41:01.534Z,976.80
2018-06-11T13:42:01.548Z,976.78
2018-06-11T13:43:01.579Z,976.76
2018-06-11T13:44:01.577Z,976.75
2018-06-11T13:45:01.580Z,976.75
2018-06-11T13:46:01.589Z,976.73
2018-06-11T13:47:01.599Z,976.74
2018-06-11T13:48:01.605Z,976.70
2018-06-11T13:49:01.623Z,976.76
2018-06-11T13:50:01.635Z,976.76
2018-06-11T13:51:01.648Z,976.83
2018-06-11T13:52:01.715Z,976.82
2018-06-11T13:53:01.669Z,976.82
2018-06-11T13:54:01.682Z,976.84
2018-06-11T13:55:01.692Z,976.84
2018-06-11T13:56:01.702Z,976.84
2018-06-11T13:57:01.767Z,976.84
2018-06-11T13:58:01.726Z,976.86
2018-06-11T13:59:01.745Z,976.83
2018-06-11T14:00:01.748Z,976.86
2018-06-11T14:01:01.757Z,976.85
2018-06-11T14:02:01.769Z,976.82
2018-06-11T14:03:01.781Z,976.80
2018-06-11T14:04:01.789Z,976.78
2018-06-11T14:05:01.804Z,976.73
2018-06-11T14:06:01.810Z,976.69
2018-06-11T14:07:01.824Z,976.67
2018-06-11T14:08:01.852Z,976.63
2018-06-11T14:09:01.850Z,976.55
2018-06-11T14:10:01.860Z,976.61
2018-06-11T14:11:01.875Z,976.59
2018-06-11T14:12:01.909Z,976.56
2018-06-11T14:13:01.894Z,976.54
2018-06-11T14:14:01.906Z,976.58
2018-06-11T14:15:01.919Z,976.58
2018-06-11T14:16:01.931Z,976.60
2018-06-11T14:17:01.939Z,976.50
2018-06-11T14:18:01.954Z,976.49
2018-06-11T14:19:01.968Z,976.43
2018-06-11T14:20:01.983Z,976.40
2018-06-11T14:21:01.991Z,976.45
2018-06-11T14:22:02.006Z,976.45
2018-06-11T14:23:02.015Z,976.40
2018-06-11T14:24:02.042Z,976.36
2018-06-11T14:25:02.090Z,976.27
2018-06-11T14:26:02.053Z,976.28
2018-06-11T14:27:02.064Z,976.27
2018-06-11T14:28:02.077Z,976.29
2018-06-11T14:29:02.090Z,976.22
2018-06-11T14:30:02.102Z,976.26
2018-06-11T14:31:02.162Z,976.31
2018-06-11T14:32:02.133Z,976.18
2018-06-11T14:33:02.142Z,976.14
2018-06-11T14:34:02.153Z,976.11
2018-06-11T14:35:02.166Z,976.08
2018-06-11T14:36:02.178Z,976.06
2018-06-11T14:37:02.184Z,976.10
2018-06-11T14:38:02.202Z,976.13
2018-06-11T14:39:02.213Z,976.12
2018-06-11T14:40:02.228Z,976.11
2018-06-11T14:41:02.248Z,976.07
2018-06-11T14:42:02.255Z,976.00
2018-06-11T14:43:02.260Z,976.02
2018-06-11T14:44:02.274Z,976.05
2018-06-11T14:45:02.283Z,976.10
2018-06-11T14:46:02.295Z,976.14
2018-06-11T14:47:02.308Z,976.09
2018-06-11T14:48:02.319Z,976.09
2018-06-11T14:49:02.331Z,976.07
2018-06-11T14:50:02.337Z,976.10
2018-06-11T14:51:02.381Z,976.09
2018-06-11T14:52:02.360Z,976.09
2018-06-11T14:53:02.377Z,976.11
2018-06-11T14:54:02.389Z,976.07
2018-06-11T14:55:02.403Z,976.02
2018-06-11T14:56:02.410Z,976.03
2018-06-11T14:57:02.419Z,976.04
2018-06-11T14:58:02.458Z,976.12
2018-06-11T14:59:02.446Z,976.13
2018-06-11T15:00:02.458Z,976.14
2018-06-11T15:01:02.470Z,976.20
2018-06-11T15:02:02.515Z,976.16
2018-06-11T15:03:02.506Z,976.17
2018-06-11T15:04:02.513Z,976.16
2018-06-11T15:05:02.519Z,976.16
2018-06-11T15:06:02.529Z,976.16
2018-06-11T15:07:02.537Z,976.12
2018-06-11T15:08:02.549Z,976.15
2018-06-11T15:09:02.565Z,976.11
2018-06-11T15:10:02.568Z,976.19
2018-06-11T15:11:02.582Z,976.13
2018-06-11T15:12:02.593Z,976.12
2018-06-11T15:13:02.602Z,976.08
2018-06-11T15:14:02.618Z,976.07
2018-06-11T15:15:02.626Z,976.12
2018-06-11T15:16:02.637Z,976.17
2018-06-11T15:17:02.652Z,976.19
2018-06-11T15:18:02.664Z,976.21
2018-06-11T15:19:02.673Z,976.21
2018-06-11T15:20:02.683Z,976.21
2018-06-11T15:21:02.696Z,976.25
2018-06-11T15:22:02.701Z,976.28
2018-06-11T15:23:02.709Z,976.26
2018-06-11T15:24:02.718Z,976.24
2018-06-11T15:25:02.737Z,976.18
2018-06-11T15:26:02.744Z,976.14
2018-06-11T15:27:02.756Z,976.11
2018-06-11T15:28:02.768Z,976.06
2018-06-11T15:29:02.784Z,976.09
2018-06-11T15:30:02.788Z,976.07
2018-06-11T15:31:02.800Z,976.07
2018-06-11T15:32:02.808Z,976.06
2018-06-11T15:33:02.823Z,976.02
2018-06-11T15:34:02.830Z,976.00
2018-06-11T15:35:02.858Z,975.98
2018-06-11T15:36:02.848Z,975.90
2018-06-11T15:37:02.873Z,975.90
2018-06-11T15:38:02.865Z,975.89
2018-06-11T15:39:02.881Z,975.85
2018-06-11T15:40:02.889Z,975.85
2018-06-11T15:41:02.896Z,975.89
2018-06-11T15:42:02.910Z,975.88
2018-06-11T15:43:02.917Z,975.88
2018-06-11T15:44:02.931Z,975.84
2018-06-11T15:45:02.936Z,975.85
2018-06-11T15:46:02.954Z,975.84
2018-06-11T15:47:02.957Z,975.80
2018-06-11T15:48:02.971Z,975.79
2018-06-11T15:49:02.985Z,975.74
2018-06-11T15:50:02.994Z,975.67
2018-06-11T15:51:03.001Z,975.65
2018-06-11T15:52:03.010Z,975.66
2018-06-11T15:53:03.021Z,975.63
2018-06-11T15:54:03.032Z,975.61
2018-06-11T15:55:03.038Z,975.65
2018-06-11T15:56:03.050Z,975.61
2018-06-11T15:57:03.065Z,975.64
2018-06-11T15:58:03.068Z,975.59
2018-06-11T15:59:03.074Z,975.59
2018-06-11T16:00:03.091Z,975.59
2018-06-11T16:01:03.093Z,975.55
2018-06-11T16:02:03.110Z,975.53
2018-06-11T16:03:03.118Z,975.49
2018-06-11T16:04:03.120Z,975.48
2018-06-11T16:05:03.151Z,975.41
2018-06-11T16:06:03.143Z,975.34
2018-06-11T16:07:03.154Z,975.31
2018-06-11T16:08:03.176Z,975.31
2018-06-11T16:09:03.177Z,975.25
2018-06-11T16:10:03.185Z,975.29
2018-06-11T16:11:03.192Z,975.25
2018-06-11T16:12:03.241Z,975.22
2018-06-11T16:13:03.211Z,975.20
2018-06-11T16:14:03.225Z,975.25
2018-06-11T16:15:03.233Z,975.20
2018-06-11T16:16:03.242Z,975.20
2018-06-11T16:17:03.250Z,975.24
2018-06-11T16:18:03.263Z,975.17
2018-06-11T16:19:03.272Z,975.17
2018-06-11T16:20:03.278Z,975.18
2018-06-11T16:21:03.282Z,975.20
2018-06-11T16:22:03.299Z,975.25
2018-06-11T16:23:03.306Z,975.15
2018-06-11T16:24:03.314Z,975.13
2018-06-11T16:25:03.324Z,975.13
2018-06-11T16:26:03.332Z,975.14
2018-06-11T16:27:03.341Z,975.12
2018-06-11T16:28:03.350Z,975.02
2018-06-11T16:29:03.359Z,975.07
2018-06-11T16:30:03.371Z,975.15
2018-06-11T16:31:03.381Z,975.12
2018-06-11T16:32:03.387Z,975.13
2018-06-11T16:33:03.400Z,975.13
2018-06-11T16:34:03.403Z,975.14
2018-06-11T16:35:03.410Z,975.09
2018-06-11T16:36:03.429Z,975.09
2018-06-11T16:37:03.457Z,975.09
2018-06-11T16:38:03.453Z,975.10
2018-06-11T16:39:03.451Z,975.08
2018-06-11T16:40:03.472Z,975.09
2018-06-11T16:41:03.463Z,975.06
2018-06-11T16:42:03.498Z,975.11
2018-06-11T16:43:03.539Z,975.05
2018-06-11T16:44:03.491Z,975.03
2018-06-11T16:45:03.499Z,975.01
2018-06-11T16:46:03.507Z,974.97
2018-06-11T16:47:03.518Z,974.96
2018-06-11T16:48:03.523Z,974.93
2018-06-11T16:49:03.541Z,974.92
2018-06-11T16:50:03.542Z,974.88
2018-06-11T16:51:03.548Z,974.84
2018-06-11T16:52:03.556Z,974.83
2018-06-11T16:53:03.564Z,974.78
2018-06-11T16:54:03.572Z,974.72
2018-06-11T16:55:03.581Z,974.67
2018-06-11T16:56:03.584Z,974.59
2018-06-11T16:57:03.597Z,974.63
2018-06-11T16:58:03.607Z,974.64
2018-06-11T16:59:03.618Z,974.65
2018-06-11T17:00:03.625Z,974.61
2018-06-11T17:01:03.637Z,974.66
2018-06-11T17:02:03.643Z,974.61
2018-06-11T17:03:03.645Z,974.61
2018-06-11T17:04:03.656Z,974.57
2018-06-11T17:05:03.669Z,974.58
2018-06-11T17:06:03.674Z,974.52
2018-06-11T17:07:03.683Z,974.58
2018-06-11T17:08:03.696Z,974.54
2018-06-11T17:09:03.700Z,974.56
2018-06-11T17:10:03.701Z,974.53
2018-06-11T17:11:03.716Z,974.49
2018-06-11T17:12:03.740Z,974.50
2018-06-11T17:13:03.733Z,974.55
2018-06-11T17:14:03.740Z,974.54
2018-06-11T17:15:03.743Z,974.55
2018-06-11T17:16:03.760Z,974.57
2018-06-11T17:17:03.763Z,974.52
2018-06-11T17:18:03.772Z,974.54
2018-06-11T17:19:03.783Z,974.59
2018-06-11T17:20:03.789Z,974.57
2018-06-11T17:21:03.803Z,974.64
2018-06-11T17:22:03.805Z,974.53
2018-06-11T17:23:03.809Z,974.57
2018-06-11T17:24:03.822Z,974.53
2018-06-11T17:25:03.822Z,974.57
2018-06-11T17:26:03.839Z,974.57
2018-06-11T17:27:03.853Z,974.57
2018-06-11T17:28:03.846Z,974.58
2018-06-11T17:29:03.880Z,974.60
2018-06-11T17:30:03.865Z,974.66
2018-06-11T17:31:03.878Z,974.64
2018-06-11T17:32:03.889Z,974.66
2018-06-11T17:33:03.892Z,974.71
2018-06-11T17:34:03.901Z,974.72
2018-06-11T17:35:03.909Z,974.74
2018-06-11T17:36:03.914Z,974.71
2018-06-11T17:37:03.918Z,974.68
2018-06-11T17:38:03.930Z,974.63
2018-06-11T17:39:03.936Z,974.64
2018-06-11T17:40:03.944Z,974.61
2018-06-11T17:41:03.953Z,974.64
2018-06-11T17:42:03.962Z,974.64
2018-06-11T17:43:03.970Z,974.71
2018-06-11T17:44:03.981Z,974.68
2018-06-11T17:45:03.984Z,974.72
2018-06-11T17:46:03.994Z,974.71
2018-06-11T17:47:03.999Z,974.78
2018-06-11T17:48:04.005Z,974.73
2018-06-11T17:49:04.014Z,974.71
2018-06-11T17:50:04.024Z,974.69
2018-06-11T17:51:04.029Z,974.64
2018-06-11T17:52:04.044Z,974.66
2018-06-11T17:53:04.050Z,974.67
2018-06-11T17:54:04.054Z,974.70
2018-06-11T17:55:04.058Z,974.76
2018-06-11T17:56:04.068Z,974.79
2018-06-11T17:57:04.080Z,974.84
2018-06-11T17:58:04.080Z,974.89
2018-06-11T17:59:04.114Z,974.93
2018-06-11T18:00:04.096Z,974.97
2018-06-11T18:01:04.105Z,974.97
2018-06-11T18:02:04.112Z,974.99
2018-06-11T18:03:04.118Z,975.01
2018-06-11T18:04:04.127Z,974.95
2018-06-11T18:05:04.131Z,975.03
2018-06-11T18:06:04.146Z,974.99
2018-06-11T18:07:04.149Z,975.02
2018-06-11T18:08:04.148Z,975.05
2018-06-11T18:09:04.155Z,975.10
2018-06-11T18:10:04.163Z,975.16
2018-06-11T18:11:04.171Z,975.11
2018-06-11T18:12:04.182Z,975.07
2018-06-11T18:13:04.206Z,975.08
2018-06-11T18:14:04.196Z,975.11
2018-06-11T18:15:04.201Z,975.09
2018-06-11T18:16:04.210Z,975.14
2018-06-11T18:17:04.217Z,975.16
2018-06-11T18:18:04.227Z,975.17
2018-06-11T18:19:04.223Z,975.20
2018-06-11T18:20:04.242Z,975.18
2018-06-11T18:21:04.245Z,975.19
2018-06-11T18:22:04.254Z,975.20
2018-06-11T18:23:04.251Z,975.22
2018-06-11T18:24:04.265Z,975.19
2018-06-11T18:25:04.272Z,975.17
2018-06-11T18:26:04.279Z,975.17
2018-06-11T18:27:04.283Z,975.22
2018-06-11T18:28:04.291Z,975.16
2018-06-11T18:29:04.298Z,975.12
2018-06-11T18:30:04.303Z,975.10
2018-06-11T18:31:04.312Z,975.07
2018-06-11T18:32:04.317Z,975.03
2018-06-11T18:33:04.320Z,974.99
2018-06-11T18:34:04.379Z,974.97
2018-06-11T18:35:04.334Z,974.95
2018-06-11T18:36:04.345Z,974.96
2018-06-11T18:37:04.351Z,974.86
2018-06-11T18:38:04.360Z,974.81
2018-06-11T18:39:04.364Z,974.81
2018-06-11T18:40:04.389Z,974.84
2018-06-11T18:41:04.383Z,974.81
2018-06-11T18:42:04.469Z,974.77
2018-06-11T18:43:04.399Z,974.80
2018-06-11T18:44:04.397Z,974.78
2018-06-11T18:45:04.397Z,974.81
2018-06-11T18:46:04.412Z,974.85
2018-06-11T18:47:04.417Z,974.83
2018-06-11T18:48:04.420Z,974.81
2018-06-11T18:49:04.431Z,974.80
2018-06-11T18:50:04.431Z,974.77
2018-06-11T18:51:04.439Z,974.75
2018-06-11T18:52:04.451Z,974.69
2018-06-11T18:53:04.450Z,974.65
2018-06-11T18:54:04.460Z,974.65
2018-06-11T18:55:04.464Z,974.59
2018-06-11T18:56:04.473Z,974.57
2018-06-11T18:57:04.483Z,974.55
2018-06-11T18:58:04.487Z,974.52
2018-06-11T18:59:04.493Z,974.47
2018-06-11T19:00:04.502Z,974.47
2018-06-11T19:01:04.506Z,974.51
2018-06-11T19:02:04.514Z,974.48
2018-06-11T19:03:04.518Z,974.45
2018-06-11T19:04:04.527Z,974.43
2018-06-11T19:05:04.532Z,974.40
2018-06-11T19:06:04.541Z,974.45
2018-06-11T19:07:04.544Z,974.41
2018-06-11T19:08:04.547Z,974.43
2018-06-11T19:09:04.556Z,974.41
2018-06-11T19:10:04.566Z,974.33
2018-06-11T19:11:04.563Z,974.37
2018-06-11T19:12:04.575Z,974.29
2018-06-11T19:13:04.582Z,974.28
2018-06-11T19:14:04.588Z,974.26
2018-06-11T19:15:04.593Z,974.24
2018-06-11T19:16:04.596Z,974.26
2018-06-11T19:17:04.605Z,974.24
2018-06-11T19:18:04.611Z,974.23
2018-06-11T19:19:04.644Z,974.28
2018-06-11T19:20:04.628Z,974.25
2018-06-11T19:21:04.628Z,974.28
2018-06-11T19:22:04.636Z,974.28
2018-06-11T19:23:04.640Z,974.24
2018-06-11T19:24:04.645Z,974.25
2018-06-11T19:25:04.653Z,974.23
2018-06-11T19:26:04.660Z,974.31
2018-06-11T19:27:04.663Z,974.29
2018-06-11T19:28:04.669Z,974.31
2018-06-11T19:29:04.676Z,974.35
2018-06-11T19:30:04.676Z,974.39
2018-06-11T19:31:04.687Z,974.40
2018-06-11T19:32:04.715Z,974.46
2018-06-11T19:33:04.757Z,974.42
2018-06-11T19:34:04.705Z,974.43